This is the latest recevied weather packets stored in our database for station/object N5RPG. If no packets are shown the sender has not sent any weather packets the latest 1 day(s).
| Time | Temp. | Humidity | Pressure | Rain* | Wind** | Luminosity | Snow |
|---|---|---|---|---|---|---|---|
| 1777980080 | 20° C | 87% | 1008 hPa | 0 mm | 2.24 m/s, 202° | 0 W/m² | - |
| 1777979779 | 20° C | 87% | 1008 hPa | 0 mm | 1.34 m/s, 183° | 0 W/m² | - |
| 1777979475 | 20° C | 87% | 1008.1 hPa | 0 mm | 0.45 m/s, 165° | 0 W/m² | - |
| 1777979172 | 20° C | 87% | 1008 hPa | 0 mm | 0.89 m/s, 95° | 0 W/m² | - |
| 1777978869 | 20° C | 87% | 1008.1 hPa | 0 mm | 0.45 m/s, 206° | 0 W/m² | - |
| 1777978566 | 20° C | 87% | 1007.9 hPa | 0 mm | 1.34 m/s, 190° | 0 W/m² | - |
| 1777978261 | 20° C | 87% | 1007.8 hPa | 0 mm | 0.45 m/s, 252° | 0 W/m² | - |
| 1777977958 | 20° C | 87% | 1008 hPa | 0 mm | 0.89 m/s, 66° | 0 W/m² | - |
| 1777977656 | 20° C | 86% | 1008 hPa | 0 mm | 0.89 m/s, 182° | 0 W/m² | - |
| 1777977352 | 20° C | 86% | 1007.8 hPa | 0 mm | 0 m/s | 0 W/m² | - |
| 1777977050 | 20° C | 86% | 1007.7 hPa | 0 mm | 2.68 m/s, 125° | 0 W/m² | - |
| 1777976747 | 20° C | 86% | 1007.8 hPa | 0 mm | 0 m/s | 0 W/m² | - |
| 1777976445 | 20° C | 86% | 1007.8 hPa | 0 mm | 1.79 m/s, 131° | 0 W/m² | - |
| 1777976143 | 20° C | 86% | 1007.8 hPa | 0 mm | 1.34 m/s, 124° | 0 W/m² | - |
| 1777975839 | 20° C | 86% | 1007.9 hPa | 0 mm | 0.89 m/s, 252° | 0 W/m² | - |
| 1777975536 | 20° C | 86% | 1007.9 hPa | 0 mm | 0.89 m/s, 230° | 0 W/m² | - |
| 1777975233 | 20° C | 86% | 1007.8 hPa | 0 mm | 2.24 m/s, 111° | 0 W/m² | - |
| 1777974929 | 20° C | 86% | 1007.9 hPa | 0 mm | 0.89 m/s, 173° | 0 W/m² | - |
| 1777974625 | 20° C | 86% | 1007.9 hPa | 0 mm | 1.79 m/s, 7° | 0 W/m² | - |
| 1777974322 | 20° C | 86% | 1007.9 hPa | 0 mm | 1.79 m/s, 152° | 0 W/m² | - |
| 1777974018 | 20° C | 86% | 1007.9 hPa | 0 mm | 0.45 m/s, 303° | 0 W/m² | - |
| 1777973715 | 20° C | 86% | 1008 hPa | 0 mm | 0.45 m/s, 285° | 0 W/m² | - |
| 1777973412 | 19.44° C | 86% | 1007.9 hPa | 0 mm | 3.13 m/s, 129° | 0 W/m² | - |
| 1777973110 | 19.44° C | 86% | 1008.1 hPa | 0 mm | 1.34 m/s, 241° | 0 W/m² | - |
| 1777972808 | 19.44° C | 86% | 1008.2 hPa | 0 mm | 1.79 m/s, 260° | 0 W/m² | - |
* Rain latest hour (hover to see other rain measurements)
** Current wind speed in m/s (hover to see current wind gust speed)